Pagrindinis puslapis
METAR-TAF:

METAR-TAF

Oro uostai :

Kermanšahas, Iranas

platuma: 34-16N, ilguma: 047-07E, Aukštis: 1320 m

Dabartinis oras

Ataskaita buvo paskelbta 17 minutes, ne 20:00 UTC
Vėjas 8 kt iš Pietryčių
Temperatūra 26°C
Drėgmė 17%
Slėgis 1006 hPa
Matomumas 10 km arba daugiau
Mažai debesys ne aukštis 7000 ft
Išsisklaidę debesys ne aukštis 10000 ft

METAR: OICC 062000Z 13008KT 9999 FEW070 SCT100 26/M01 Q1006 A2971

Laikas: 00:47 (20:17 UTC)


TAF: trūkstamas

Orai ataskaitas ir orų prognozės (METAR, TAF).

turimą stotys yra geltonos ir raudonos taškus žemėlapyje.

Perkelti pele per norėdami pamatyti stoties vardą.

Tada spustelėkite, norėdami matyti oro stebėjimo ir prognozės.

Norėdami pakeisti žemėlapį: spustelėkite ant žalios mygtukų su juodo kryžiaus žemyn,; žalią mygtuką su brūkšneliu, jei norite nutolinti; arba žalių rodyklių gretimoms žemėlapius.


METAR-TAF: